Brevard, North Carolina
Current Conditions -  °F | °C
As of 8:54 AM on Thursday 18 Dec 2014 (Local Time) from KAVL Reporting Station
Overcast Overcast  
Wind Chill: 34°   Ceiling: 8500
Heat Index: 38°   Visibility: 10mi
Dew Point: 29°   Wind: 5mph
Humidity: 70%   Direction: 330°NNW
Pressure: 30.17"   Gusts: NA
Location:  35.23°N, 82.73°W
Report Text: KAVL 181354Z 33004KT 10SM OVC085 03/M02 A3017 RMK AO2 RAB35E44 SLP222 P0000 T00331017
Loading
Personal Weather Stations






























Interactive Weather Map New forecast layout! Learn more

10-Day Weather Forecast

Advertisements
Track Severe Weather on mobile